METAR Data
IDs: Format: Raw Decoded Include TAF

Data at: 0738 UTC 18 Nov 2018

PAPO 180656Z AUTO 08005KT 9SM -SN OVC007 M03/M04 A2963 RMK AO2 SLP035 P0000 T10281039 FZRANO
PAPO 180643Z AUTO 03008KT 10SM BKN007 M03/M04 A2963 RMK AO2 SNE37 P0000 FZRANO
PAPO 180556Z AUTO 09005KT 9SM -SN CLR M04/M06 A2964 RMK AO2 SLP036 P0000 60000 T10441056 11028 21050 51001 FZRANO
PAPO 180456Z AUTO 07007KT 10SM -SN FEW033 M04/M06 A2964 RMK AO2 UPB02E25B46E51SNE02B25E46B51 SLP036 P0000 T10441056 FZRANO
PAPO 180356Z AUTO 08008KT 7SM -SN CLR M04/M06 A2964 RMK AO2 UPB09E32SNE09B32 SLP037 P0000 T10441056 FZRANO
PAPO 180256Z AUTO 08007KT 5SM -SN BR FEW007 M04/M06 A2964 RMK AO2 SLP035 P0000 60000 T10391056 57008 FZRANO
PAPO 180249Z AUTO 08007KT 4SM -SN BR FEW007 M04/M05 A2964 RMK AO2 P0000 FZRANO
PAPO 180156Z AUTO 00000KT 5SM -SN BR CLR M03/M04 A2965 RMK AO2 SLP038 P0000 T10331044 FZRANO
PAPO 180149Z AUTO 00000KT 4SM -SN BR CLR M03/M04 A2965 RMK AO2 P0000 FZRANO
PAPO 180128Z AUTO 02004KT 2 1/2SM -SN BR FEW008 M03/M04 A2965 RMK AO2 P0000 FZRANO
PAPO 180056Z AUTO 01007KT 7SM -SN CLR M03/M04 A2965 RMK AO2 SLP040 P0000 T10331044 FZRANO
PAPO 172356Z AUTO 02010KT 7SM -SN CLR M03/M04 A2966 RMK AO2 SLP043 P0000 60000 T10281039 11017 21028 58006 FZRANO
PAPO 172256Z AUTO 03012KT 9SM -SN OVC055 M02/M03 A2967 RMK AO2 SNB38 SLP046 P0000 T10221033 FZRANO
PAPO 172156Z AUTO 02012KT 10SM BKN060 M02/M03 A2968 RMK AO2 SLP049 T10221033 FZRANO
PAPO 172056Z AUTO 03015KT 10SM BKN038 OVC060 M02/M03 A2968 RMK AO2 SLP049 60000 T10221033 56002 FZRANO
PAPO 171956Z AUTO 03014KT 10SM OVC034 M02/M03 A2968 RMK AO2 SLP050 T10221033 FZRANO
PAPO 171856Z AUTO 02015KT 10SM OVC030 M02/M04 A2968 RMK AO2 UPB11E17SNB02E11 SLP049 P0000 T10171039 FZRANO
PAPO 171756Z AUTO 02014KT 9SM BKN030 M02/M04 A2968 RMK AO2 UPE34B53E56SNB44E53 SLP051 P0000 60000 T10221039 11017 21050 58012 FZRANO
PAPO 171709Z AUTO 02012KT 9SM UP FEW023 BKN036 M02/M03 A2970 RMK AO2 P0000 FZRANO
PAPO 171656Z AUTO 01012KT 8SM UP FEW023 BKN029 OVC036 M02/M03 A2970 RMK AO2 UPB40SNE40 SLP057 P0000 T10171033 FZRANO
PAPO 171649Z AUTO 02011KT 10SM UP FEW027 BKN034 OVC045 M02/M03 A2970 RMK AO2 UPB40SNE40 P0000 FZRANO
PAPO 171556Z AUTO 02004KT 9SM -SN FEW021 OVC027 M03/M04 A2971 RMK AO2 SLP060 P0000 T10281044 FZRANO
PAPO 171456Z AUTO 05006KT 4SM -SN BR BKN018 OVC025 M04/M06 A2972 RMK AO2 SLP063 P0000 60000 T10441056 56013 FZRANO
PAPO 171443Z AUTO 06006KT 5SM -SN BR BKN025 OVC033 M04/M06 A2972 RMK AO2 P0000 FZRANO
PAPO 171356Z AUTO 07006KT 9SM -SN OVC033 M04/M06 A2973 RMK AO2 SLP066 P0000 T10441061 FZRANO
PAPO 171256Z AUTO 08006KT 6SM -SN BR SCT018 BKN024 OVC033 M04/M06 A2974 RMK AO2 SLP071 P0000 T10441061 FZRANO
PAPO 171245Z AUTO 07007KT 5SM -SN BR OVC033 M04/M06 A2974 RMK AO2 P0000 FZRANO
PAPO 171227Z AUTO 08007KT 2 1/2SM -SN BR OVC031 M04/M06 A2975 RMK AO2 P0000 FZRANO
PAPO 171203Z AUTO 08007KT 4SM -SN BR SCT021 OVC027 M04/M06 A2975 RMK AO2 P0000 FZRANO
PAPO 171156Z AUTO 08007KT 2 1/2SM -SN BR BKN021 BKN027 OVC033 M04/M06 A2976 RMK AO2 SLP076 P0000 60000 T10391061 11011 21039 56005 FZRANO
PAPO 171152Z AUTO 08007KT 2 1/2SM -SN BR BKN021 OVC027 M04/M06 A2976 RMK AO2 P0000 FZRANO
PAPO 171133Z AUTO 07007KT 4SM -SN BKN026 OVC033 M04/M07 A2976 RMK AO2 P0000 FZRANO
PAPO 171056Z AUTO 11008KT 9SM -SN FEW044 M02/M05 A2976 RMK AO2 SNB11 SLP078 P0000 T10221050 FZRANO
PAPO 170956Z AUTO 10009KT 10SM CLR M02/M06 A2977 RMK AO2 SLP081 T10171056 FZRANO
PAPO 170856Z AUTO 09006KT 8SM FEW070 M04/M09 A2977 RMK AO2 SLP082 T10391089 410111094 58008 FZRANO
PAPO 170756Z AUTO 12005KT 10SM FEW070 M02/M07 A2978 RMK AO2 SLP085 T10171072 FZRANO
PAPO 170656Z AUTO 10005KT 6SM HZ BKN075 M04/M08 A2979 RMK AO2 SLP088 T10391078 FZRANO
PAPO 170556Z AUTO 10006KT 9SM FEW090 M04/M09 A2980 RMK AO2 SLP090 T10441094 11039 21072 56013 FZRANO
PAPO 170456Z AUTO 07007KT 10SM CLR M07/M11 A2980 RMK AO2 SLP092 T10671106 FZRANO
PAPO 170356Z AUTO 06006KT 10SM CLR M07/M11 A2982 RMK AO2 SLP098 T10721106 FZRANO
PAPO 170256Z AUTO 07009KT 10SM CLR M07/M11 A2984 RMK AO2 SLP103 T10671106 57017 FZRANO
PAPO 170156Z AUTO 07008KT 10SM CLR M07/M11 A2985 RMK AO2 SLP109 T10671111 FZRANO
PAPO 170056Z AUTO 07009KT 10SM CLR M06/M11 A2987 RMK AO2 SLP114 T10561106 FZRANO
PAPO 162356Z AUTO 07008KT 3SM HZ CLR M07/M11 A2989 RMK AO2 SLP120 T10671106 11033 21078 58020 FZRANO
PAPO 162256Z AUTO 07008KT 10SM CLR M07/M12 A2991 RMK AO2 SLP127 T10721117 FZRANO
PAPO 162156Z AUTO 09007KT 10SM CLR M07/M12 A2993 RMK AO2 SLP135 T10721117 FZRANO
PAPO 162056Z AUTO 11004KT 10SM CLR M04/M08 A2994 RMK AO2 SLP140 T10441083 58017 FZRANO
PAPO 161956Z AUTO 09006KT 10SM CLR M06/M11 A2996 RMK AO2 SLP146 T10611111 FZRANO